sensor_id;sensor_type;location;lat;lon;timestamp;pressure;altitude;pressure_sealevel;temperature;humidity
80927;BME280;70385;44.538;18.532;2023-08-17T00:00:51;99557.94;;;16.43;100.00
80927;BME280;70385;44.538;18.532;2023-08-17T00:03:18;99560.13;;;16.36;100.00
80927;BME280;70385;44.538;18.532;2023-08-17T00:05:47;99561.19;;;16.33;100.00
80927;BME280;70385;44.538;18.532;2023-08-17T00:08:15;99558.75;;;16.30;100.00
80927;BME280;70385;44.538;18.532;2023-08-17T00:10:42;99560.63;;;16.28;100.00
80927;BME280;70385;44.538;18.532;2023-08-17T00:13:08;99560.56;;;16.16;100.00
80927;BME280;70385;44.538;18.532;2023-08-17T00:15:35;99558.88;;;16.15;100.00
80927;BME280;70385;44.538;18.532;2023-08-17T00:18:01;99572.47;;;16.08;100.00
80927;BME280;70385;44.538;18.532;2023-08-17T00:20:27;99557.59;;;16.07;100.00
80927;BME280;70385;44.538;18.532;2023-08-17T00:23:01;99566.09;;;15.98;100.00
80927;BME280;70385;44.538;18.532;2023-08-17T00:25:28;99569.22;;;15.91;100.00
80927;BME280;70385;44.538;18.532;2023-08-17T00:27:56;99564.78;;;15.91;100.00
80927;BME280;70385;44.538;18.532;2023-08-17T00:30:27;99563.84;;;15.92;100.00
80927;BME280;70385;44.538;18.532;2023-08-17T00:33:09;99563.66;;;15.95;100.00
80927;BME280;70385;44.538;18.532;2023-08-17T00:35:35;99562.22;;;16.04;100.00
80927;BME280;70385;44.538;18.532;2023-08-17T00:38:03;99564.97;;;16.02;100.00
80927;BME280;70385;44.538;18.532;2023-08-17T00:40:36;99563.28;;;16.01;100.00
80927;BME280;70385;44.538;18.532;2023-08-17T00:43:11;99556.09;;;16.03;100.00
80927;BME280;70385;44.538;18.532;2023-08-17T00:45:38;99557.19;;;16.14;100.00
80927;BME280;70385;44.538;18.532;2023-08-17T00:48:05;99563.84;;;16.19;100.00
80927;BME280;70385;44.538;18.532;2023-08-17T00:50:33;99565.84;;;16.16;100.00
80927;BME280;70385;44.538;18.532;2023-08-17T00:53:00;99562.00;;;16.21;100.00
80927;BME280;70385;44.538;18.532;2023-08-17T00:55:27;99558.75;;;16.30;100.00
80927;BME280;70385;44.538;18.532;2023-08-17T00:57:57;99560.13;;;16.36;100.00
80927;BME280;70385;44.538;18.532;2023-08-17T01:00:23;99554.56;;;16.41;100.00
80927;BME280;70385;44.538;18.532;2023-08-17T01:02:56;99551.09;;;16.40;100.00
80927;BME280;70385;44.538;18.532;2023-08-17T01:05:23;99547.50;;;16.41;100.00
80927;BME280;70385;44.538;18.532;2023-08-17T01:07:58;99548.47;;;16.53;100.00
80927;BME280;70385;44.538;18.532;2023-08-17T01:10:28;99542.13;;;16.55;100.00
80927;BME280;70385;44.538;18.532;2023-08-17T01:13:07;99542.69;;;16.60;100.00
80927;BME280;70385;44.538;18.532;2023-08-17T01:15:36;99539.00;;;16.63;100.00
80927;BME280;70385;44.538;18.532;2023-08-17T01:20:51;99543.03;;;16.68;100.00
80927;BME280;70385;44.538;18.532;2023-08-17T01:23:22;99538.72;;;16.67;100.00
80927;BME280;70385;44.538;18.532;2023-08-17T01:25:50;99540.28;;;16.70;100.00
80927;BME280;70385;44.538;18.532;2023-08-17T01:28:17;99544.31;;;16.76;100.00
80927;BME280;70385;44.538;18.532;2023-08-17T01:30:46;99542.22;;;16.81;100.00
80927;BME280;70385;44.538;18.532;2023-08-17T01:33:16;99541.06;;;16.85;100.00
80927;BME280;70385;44.538;18.532;2023-08-17T01:35:50;99544.13;;;16.91;100.00
80927;BME280;70385;44.538;18.532;2023-08-17T01:38:21;99545.41;;;16.86;100.00
80927;BME280;70385;44.538;18.532;2023-08-17T01:40:49;99547.31;;;16.84;100.00
80927;BME280;70385;44.538;18.532;2023-08-17T01:43:20;99537.25;;;16.89;100.00
80927;BME280;70385;44.538;18.532;2023-08-17T01:45:51;99542.34;;;16.92;100.00
80927;BME280;70385;44.538;18.532;2023-08-17T01:48:17;99543.06;;;16.94;100.00
80927;BME280;70385;44.538;18.532;2023-08-17T01:50:45;99540.25;;;16.97;100.00
80927;BME280;70385;44.538;18.532;2023-08-17T01:53:12;99545.00;;;17.05;100.00
80927;BME280;70385;44.538;18.532;2023-08-17T01:55:40;99540.13;;;16.98;100.00
80927;BME280;70385;44.538;18.532;2023-08-17T01:58:15;99542.66;;;16.87;100.00
80927;BME280;70385;44.538;18.532;2023-08-17T02:00:42;99541.69;;;16.88;100.00
80927;BME280;70385;44.538;18.532;2023-08-17T02:03:08;99540.97;;;16.86;100.00
80927;BME280;70385;44.538;18.532;2023-08-17T02:05:34;99538.22;;;16.88;100.00
80927;BME280;70385;44.538;18.532;2023-08-17T02:08:05;99534.41;;;16.92;100.00
80927;BME280;70385;44.538;18.532;2023-08-17T02:10:32;99532.41;;;17.08;100.00
80927;BME280;70385;44.538;18.532;2023-08-17T02:12:58;99530.72;;;17.07;100.00
80927;BME280;70385;44.538;18.532;2023-08-17T02:15:24;99530.94;;;17.04;100.00
80927;BME280;70385;44.538;18.532;2023-08-17T02:17:50;99530.31;;;17.01;100.00
80927;BME280;70385;44.538;18.532;2023-08-17T02:20:16;99530.81;;;16.93;100.00
80927;BME280;70385;44.538;18.532;2023-08-17T02:22:42;99527.88;;;16.97;100.00
80927;BME280;70385;44.538;18.532;2023-08-17T02:25:11;99526.81;;;17.00;100.00
80927;BME280;70385;44.538;18.532;2023-08-17T02:27:39;99527.44;;;17.04;100.00
80927;BME280;70385;44.538;18.532;2023-08-17T02:30:08;99520.16;;;17.07;100.00
80927;BME280;70385;44.538;18.532;2023-08-17T02:32:35;99520.25;;;17.18;100.00
80927;BME280;70385;44.538;18.532;2023-08-17T02:35:02;99521.63;;;17.11;100.00
80927;BME280;70385;44.538;18.532;2023-08-17T02:37:27;99516.88;;;17.04;100.00
80927;BME280;70385;44.538;18.532;2023-08-17T02:39:54;99524.28;;;16.98;100.00
80927;BME280;70385;44.538;18.532;2023-08-17T02:42:24;99521.19;;;16.92;100.00
80927;BME280;70385;44.538;18.532;2023-08-17T02:44:50;99523.72;;;16.93;100.00
80927;BME280;70385;44.538;18.532;2023-08-17T02:47:17;99522.78;;;16.94;100.00
80927;BME280;70385;44.538;18.532;2023-08-17T02:49:43;99532.50;;;16.94;100.00
80927;BME280;70385;44.538;18.532;2023-08-17T02:52:11;99528.06;;;16.94;100.00
80927;BME280;70385;44.538;18.532;2023-08-17T02:54:38;99526.38;;;16.93;100.00
80927;BME280;70385;44.538;18.532;2023-08-17T02:57:05;99534.19;;;16.95;100.00
80927;BME280;70385;44.538;18.532;2023-08-17T02:59:31;99539.28;;;16.98;100.00
80927;BME280;70385;44.538;18.532;2023-08-17T03:01:58;99533.78;;;17.01;100.00
80927;BME280;70385;44.538;18.532;2023-08-17T03:04:25;99537.19;;;17.03;100.00
80927;BME280;70385;44.538;18.532;2023-08-17T03:06:51;99536.97;;;17.06;100.00
80927;BME280;70385;44.538;18.532;2023-08-17T03:09:17;99535.28;;;17.05;100.00
80927;BME280;70385;44.538;18.532;2023-08-17T03:11:42;99538.88;;;17.04;100.00
80927;BME280;70385;44.538;18.532;2023-08-17T03:14:08;99537.19;;;17.03;100.00
80927;BME280;70385;44.538;18.532;2023-08-17T03:16:35;99544.56;;;17.11;100.00
80927;BME280;70385;44.538;18.532;2023-08-17T03:19:01;99549.75;;;17.12;100.00
80927;BME280;70385;44.538;18.532;2023-08-17T03:21:27;99549.75;;;17.12;100.00
80927;BME280;70385;44.538;18.532;2023-08-17T03:23:54;99553.25;;;17.13;100.00
80927;BME280;70385;44.538;18.532;2023-08-17T03:26:21;99550.47;;;17.14;100.00
80927;BME280;70385;44.538;18.532;2023-08-17T03:28:48;99547.94;;;17.13;100.00
80927;BME280;70385;44.538;18.532;2023-08-17T03:31:14;99553.69;;;17.19;100.00
80927;BME280;70385;44.538;18.532;2023-08-17T03:33:41;99553.91;;;17.16;100.00
80927;BME280;70385;44.538;18.532;2023-08-17T03:36:10;99553.91;;;17.16;100.00
80927;BME280;70385;44.538;18.532;2023-08-17T03:38:36;99552.28;;;17.14;100.00
80927;BME280;70385;44.538;18.532;2023-08-17T03:41:05;99556.72;;;17.13;100.00
80927;BME280;70385;44.538;18.532;2023-08-17T03:43:34;99553.47;;;17.22;100.00
80927;BME280;70385;44.538;18.532;2023-08-17T03:46:01;99550.81;;;17.22;100.00
80927;BME280;70385;44.538;18.532;2023-08-17T03:48:31;99553.78;;;17.30;100.00
80927;BME280;70385;44.538;18.532;2023-08-17T03:50:57;99558.66;;;17.37;100.00
80927;BME280;70385;44.538;18.532;2023-08-17T03:53:23;99561.19;;;17.38;100.00
80927;BME280;70385;44.538;18.532;2023-08-17T03:55:53;99557.47;;;17.41;100.00
80927;BME280;70385;44.538;18.532;2023-08-17T03:58:20;99563.19;;;17.35;100.00
80927;BME280;70385;44.538;18.532;2023-08-17T04:00:49;99565.63;;;17.38;100.00
80927;BME280;70385;44.538;18.532;2023-08-17T04:03:19;99573.75;;;17.35;100.00
80927;BME280;70385;44.538;18.532;2023-08-17T04:05:48;99568.28;;;17.38;100.00
80927;BME280;70385;44.538;18.532;2023-08-17T04:08:13;99566.88;;;17.32;100.00
80927;BME280;70385;44.538;18.532;2023-08-17T04:10:39;99564.91;;;17.36;100.00
80927;BME280;70385;44.538;18.532;2023-08-17T04:13:07;99564.69;;;17.39;100.00
80927;BME280;70385;44.538;18.532;2023-08-17T04:15:39;99569.31;;;17.35;100.00
80927;BME280;70385;44.538;18.532;2023-08-17T04:18:05;99576.41;;;17.35;100.00
80927;BME280;70385;44.538;18.532;2023-08-17T04:20:36;99576.41;;;17.35;100.00
80927;BME280;70385;44.538;18.532;2023-08-17T04:23:02;99583.50;;;17.34;100.00
80927;BME280;70385;44.538;18.532;2023-08-17T04:25:28;99587.09;;;17.33;100.00
80927;BME280;70385;44.538;18.532;2023-08-17T04:27:54;99581.28;;;17.28;100.00
80927;BME280;70385;44.538;18.532;2023-08-17T04:30:31;99588.16;;;17.30;100.00
80927;BME280;70385;44.538;18.532;2023-08-17T04:33:00;99582.66;;;17.34;100.00
80927;BME280;70385;44.538;18.532;2023-08-17T04:35:30;99586.06;;;17.36;100.00
80927;BME280;70385;44.538;18.532;2023-08-17T04:37:56;99583.72;;;17.44;100.00
80927;BME280;70385;44.538;18.532;2023-08-17T04:40:23;99588.38;;;17.40;100.00
80927;BME280;70385;44.538;18.532;2023-08-17T04:42:52;99590.69;;;17.45;100.00
80927;BME280;70385;44.538;18.532;2023-08-17T04:45:18;99590.69;;;17.45;100.00
80927;BME280;70385;44.538;18.532;2023-08-17T04:47:46;99589.97;;;17.55;100.00
80927;BME280;70385;44.538;18.532;2023-08-17T04:50:18;99592.91;;;17.64;100.00
80927;BME280;70385;44.538;18.532;2023-08-17T04:52:47;99596.41;;;17.64;100.00
80927;BME280;70385;44.538;18.532;2023-08-17T04:55:14;99600.97;;;17.62;100.00
80927;BME280;70385;44.538;18.532;2023-08-17T04:57:43;99600.88;;;17.76;100.00
80927;BME280;70385;44.538;18.532;2023-08-17T05:00:11;99603.81;;;17.84;100.00
80927;BME280;70385;44.538;18.532;2023-08-17T05:02:41;99599.34;;;17.98;100.00
80927;BME280;70385;44.538;18.532;2023-08-17T05:05:09;99594.44;;;18.04;100.00
80927;BME280;70385;44.538;18.532;2023-08-17T05:07:37;99593.88;;;18.12;100.00
80927;BME280;70385;44.538;18.532;2023-08-17T05:10:03;99593.69;;;18.15;100.00
80927;BME280;70385;44.538;18.532;2023-08-17T05:12:34;99594.00;;;18.10;100.00
80927;BME280;70385;44.538;18.532;2023-08-17T05:15:03;99595.88;;;18.21;100.00
80927;BME280;70385;44.538;18.532;2023-08-17T05:17:30;99595.00;;;18.33;100.00
80927;BME280;70385;44.538;18.532;2023-08-17T05:19:56;99598.66;;;18.43;100.00
80927;BME280;70385;44.538;18.532;2023-08-17T05:22:22;99605.94;;;18.53;100.00
80927;BME280;70385;44.538;18.532;2023-08-17T05:24:56;99600.81;;;18.62;100.00
80927;BME280;70385;44.538;18.532;2023-08-17T05:27:25;99602.00;;;18.82;100.00
80927;BME280;70385;44.538;18.532;2023-08-17T05:29:50;99604.72;;;18.93;100.00
80927;BME280;70385;44.538;18.532;2023-08-17T05:32:20;99598.94;;;18.99;100.00
80927;BME280;70385;44.538;18.532;2023-08-17T05:34:51;99596.78;;;19.04;100.00
80927;BME280;70385;44.538;18.532;2023-08-17T05:37:18;99601.59;;;18.99;99.80
80927;BME280;70385;44.538;18.532;2023-08-17T05:39:44;99595.81;;;19.05;100.00
80927;BME280;70385;44.538;18.532;2023-08-17T05:42:16;99596.03;;;19.02;100.00
80927;BME280;70385;44.538;18.532;2023-08-17T05:44:46;99596.16;;;19.01;100.00
80927;BME280;70385;44.538;18.532;2023-08-17T05:47:20;99596.88;;;19.03;100.00
80927;BME280;70385;44.538;18.532;2023-08-17T05:49:47;99599.59;;;19.25;99.24
80927;BME280;70385;44.538;18.532;2023-08-17T05:52:13;99598.50;;;19.17;99.49
80927;BME280;70385;44.538;18.532;2023-08-17T05:54:39;99595.06;;;19.50;97.19
80927;BME280;70385;44.538;18.532;2023-08-17T05:57:06;99594.72;;;19.77;95.91
80927;BME280;70385;44.538;18.532;2023-08-17T05:59:35;99589.19;;;19.57;96.42
80927;BME280;70385;44.538;18.532;2023-08-17T06:02:02;99593.88;;;19.65;96.40
80927;BME280;70385;44.538;18.532;2023-08-17T06:04:29;99593.75;;;19.66;96.14
80927;BME280;70385;44.538;18.532;2023-08-17T06:06:56;99593.63;;;19.79;95.74
80927;BME280;70385;44.538;18.532;2023-08-17T06:09:24;99604.50;;;19.54;97.12
80927;BME280;70385;44.538;18.532;2023-08-17T06:11:53;99602.34;;;19.59;96.71
80927;BME280;70385;44.538;18.532;2023-08-17T06:14:25;99603.66;;;19.76;95.94
80927;BME280;70385;44.538;18.532;2023-08-17T06:16:55;99606.94;;;19.90;94.53
80927;BME280;70385;44.538;18.532;2023-08-17T06:19:29;99609.56;;;19.79;94.95
80927;BME280;70385;44.538;18.532;2023-08-17T06:21:58;99609.09;;;19.96;93.87
80927;BME280;70385;44.538;18.532;2023-08-17T06:24:24;99607.72;;;20.24;92.39
80927;BME280;70385;44.538;18.532;2023-08-17T06:26:52;99613.78;;;20.26;94.13
80927;BME280;70385;44.538;18.532;2023-08-17T06:29:31;99607.59;;;20.48;92.51
80927;BME280;70385;44.538;18.532;2023-08-17T06:31:57;99602.84;;;20.52;92.57
80927;BME280;70385;44.538;18.532;2023-08-17T06:34:56;99617.41;;;20.25;93.61
80927;BME280;70385;44.538;18.532;2023-08-17T06:37:24;99606.94;;;20.56;92.89
80927;BME280;70385;44.538;18.532;2023-08-17T06:39:53;99613.88;;;21.00;91.05
80927;BME280;70385;44.538;18.532;2023-08-17T06:42:20;99610.25;;;21.01;89.56
80927;BME280;70385;44.538;18.532;2023-08-17T06:44:49;99615.13;;;21.17;88.34
80927;BME280;70385;44.538;18.532;2023-08-17T06:47:24;99610.00;;;20.83;89.53
80927;BME280;70385;44.538;18.532;2023-08-17T06:49:55;99613.88;;;21.00;88.41
80927;BME280;70385;44.538;18.532;2023-08-17T06:52:25;99618.53;;;21.40;87.29
80927;BME280;70385;44.538;18.532;2023-08-17T06:54:55;99620.66;;;21.67;86.18
80927;BME280;70385;44.538;18.532;2023-08-17T06:57:22;99620.47;;;21.59;85.52
80927;BME280;70385;44.538;18.532;2023-08-17T06:59:51;99620.75;;;21.86;85.36
80927;BME280;70385;44.538;18.532;2023-08-17T07:02:19;99626.28;;;22.04;83.64
80927;BME280;70385;44.538;18.532;2023-08-17T07:04:54;99617.69;;;22.21;82.88
80927;BME280;70385;44.538;18.532;2023-08-17T07:07:22;99618.78;;;21.88;84.44
80927;BME280;70385;44.538;18.532;2023-08-17T07:09:51;99617.81;;;21.89;84.33
80927;BME280;70385;44.538;18.532;2023-08-17T07:12:42;99614.84;;;22.13;83.17
80927;BME280;70385;44.538;18.532;2023-08-17T07:15:16;99615.16;;;22.20;83.89
80927;BME280;70385;44.538;18.532;2023-08-17T07:17:43;99617.19;;;22.56;81.42
80927;BME280;70385;44.538;18.532;2023-08-17T07:20:14;99614.34;;;22.48;81.91
80927;BME280;70385;44.538;18.532;2023-08-17T07:22:40;99614.00;;;22.82;81.33
80927;BME280;70385;44.538;18.532;2023-08-17T07:25:06;99612.69;;;22.66;81.94
80927;BME280;70385;44.538;18.532;2023-08-17T07:27:34;99609.63;;;22.81;81.39
80927;BME280;70385;44.538;18.532;2023-08-17T07:30:00;99621.59;;;22.96;81.26
80927;BME280;70385;44.538;18.532;2023-08-17T07:32:33;99615.66;;;23.12;80.04
80927;BME280;70385;44.538;18.532;2023-08-17T07:34:59;99618.34;;;23.02;79.95
80927;BME280;70385;44.538;18.532;2023-08-17T07:37:25;99617.19;;;23.24;78.72
80927;BME280;70385;44.538;18.532;2023-08-17T07:40:04;99609.06;;;23.16;79.29
80927;BME280;70385;44.538;18.532;2023-08-17T07:42:31;99618.06;;;22.86;82.53
80927;BME280;70385;44.538;18.532;2023-08-17T07:44:57;99605.25;;;23.28;79.48
80927;BME280;70385;44.538;18.532;2023-08-17T07:47:23;99605.63;;;23.62;78.55
80927;BME280;70385;44.538;18.532;2023-08-17T07:49:50;99609.25;;;22.95;80.11
80927;BME280;70385;44.538;18.532;2023-08-17T07:52:16;99609.22;;;22.85;81.50
80927;BME280;70385;44.538;18.532;2023-08-17T07:54:56;99614.53;;;22.76;81.68
80927;BME280;70385;44.538;18.532;2023-08-17T07:57:22;99604.84;;;23.23;80.16
80927;BME280;70385;44.538;18.532;2023-08-17T07:59:48;99602.00;;;23.34;79.92
80927;BME280;70385;44.538;18.532;2023-08-17T08:09:25;99612.41;;;23.84;77.58
80927;BME280;70385;44.538;18.532;2023-08-17T08:11:53;99608.22;;;23.81;75.58
80927;BME280;70385;44.538;18.532;2023-08-17T08:14:45;99607.44;;;23.99;75.07
80927;BME280;70385;44.538;18.532;2023-08-17T08:17:23;99605.66;;;24.17;73.16
80927;BME280;70385;44.538;18.532;2023-08-17T08:19:52;99602.50;;;24.31;72.85
80927;BME280;70385;44.538;18.532;2023-08-17T08:22:20;99592.28;;;24.62;72.46
80927;BME280;70385;44.538;18.532;2023-08-17T08:24:45;99585.03;;;24.90;70.98
80927;BME280;70385;44.538;18.532;2023-08-17T08:27:11;99596.13;;;24.60;72.54
80927;BME280;70385;44.538;18.532;2023-08-17T08:29:37;99588.75;;;24.44;71.75
80927;BME280;70385;44.538;18.532;2023-08-17T08:32:05;99590.38;;;24.55;73.12
80927;BME280;70385;44.538;18.532;2023-08-17T08:34:39;99592.81;;;24.48;72.94
80927;BME280;70385;44.538;18.532;2023-08-17T08:37:48;99587.88;;;24.89;72.71
80927;BME280;70385;44.538;18.532;2023-08-17T08:40:14;99581.44;;;24.99;70.41
80927;BME280;70385;44.538;18.532;2023-08-17T08:42:43;99573.50;;;25.07;70.73
80927;BME280;70385;44.538;18.532;2023-08-17T08:45:14;99581.25;;;25.19;69.48
80927;BME280;70385;44.538;18.532;2023-08-17T08:47:40;99573.91;;;25.21;69.49
80927;BME280;70385;44.538;18.532;2023-08-17T08:50:08;99580.50;;;25.60;68.24
80927;BME280;70385;44.538;18.532;2023-08-17T08:52:35;99584.31;;;25.76;68.11
80927;BME280;70385;44.538;18.532;2023-08-17T08:55:15;99580.63;;;26.19;65.55
80927;BME280;70385;44.538;18.532;2023-08-17T08:57:46;99579.34;;;25.89;64.03
80927;BME280;70385;44.538;18.532;2023-08-17T09:00:17;99582.94;;;26.06;64.07
80927;BME280;70385;44.538;18.532;2023-08-17T09:02:54;99581.94;;;26.07;65.84
80927;BME280;70385;44.538;18.532;2023-08-17T09:05:21;99575.66;;;25.90;66.35
80927;BME280;70385;44.538;18.532;2023-08-17T09:08:14;99576.94;;;26.20;65.88
80927;BME280;70385;44.538;18.532;2023-08-17T09:11:16;99572.72;;;26.09;65.97
80927;BME280;70385;44.538;18.532;2023-08-17T09:13:50;99581.75;;;26.42;64.55
80927;BME280;70385;44.538;18.532;2023-08-17T09:16:16;99574.91;;;26.64;63.35
80927;BME280;70385;44.538;18.532;2023-08-17T09:18:42;99570.41;;;25.80;65.53
80927;BME280;70385;44.538;18.532;2023-08-17T09:21:21;99564.75;;;25.57;67.10
80927;BME280;70385;44.538;18.532;2023-08-17T09:26:45;99561.25;;;26.41;65.53
80927;BME280;70385;44.538;18.532;2023-08-17T09:29:17;99564.16;;;27.13;64.27
80927;BME280;70385;44.538;18.532;2023-08-17T09:31:44;99556.41;;;27.34;62.58
80927;BME280;70385;44.538;18.532;2023-08-17T09:34:17;99557.13;;;27.20;63.09
80927;BME280;70385;44.538;18.532;2023-08-17T09:36:46;99554.75;;;27.25;61.21
80927;BME280;70385;44.538;18.532;2023-08-17T09:39:17;99548.81;;;27.54;61.53
80927;BME280;70385;44.538;18.532;2023-08-17T09:41:47;99557.97;;;27.84;60.35
80927;BME280;70385;44.538;18.532;2023-08-17T09:44:23;99549.72;;;27.30;60.82
80927;BME280;70385;44.538;18.532;2023-08-17T09:46:50;99546.66;;;27.41;59.57
80927;BME280;70385;44.538;18.532;2023-08-17T09:49:19;99542.63;;;27.45;59.37
80927;BME280;70385;44.538;18.532;2023-08-17T09:51:49;99541.59;;;27.63;59.47
80927;BME280;70385;44.538;18.532;2023-08-17T09:54:22;99539.44;;;27.34;60.37
80927;BME280;70385;44.538;18.532;2023-08-17T09:59:52;99538.75;;;27.95;60.16
80927;BME280;70385;44.538;18.532;2023-08-17T10:02:20;99539.22;;;28.61;57.84
80927;BME280;70385;44.538;18.532;2023-08-17T10:04:57;99538.59;;;28.28;57.08
80927;BME280;70385;44.538;18.532;2023-08-17T10:07:29;99537.47;;;27.83;57.24
80927;BME280;70385;44.538;18.532;2023-08-17T10:10:02;99533.19;;;27.49;60.22
80927;BME280;70385;44.538;18.532;2023-08-17T10:15:27;99529.09;;;27.78;59.42
80927;BME280;70385;44.538;18.532;2023-08-17T10:18:00;99535.91;;;27.97;57.83
80927;BME280;70385;44.538;18.532;2023-08-17T10:23:29;99526.72;;;28.45;56.01
80927;BME280;70385;44.538;18.532;2023-08-17T10:26:01;99522.78;;;28.25;55.55
80927;BME280;70385;44.538;18.532;2023-08-17T10:28:34;99522.38;;;27.74;57.52
80927;BME280;70385;44.538;18.532;2023-08-17T10:31:10;99523.97;;;27.99;58.44
80927;BME280;70385;44.538;18.532;2023-08-17T10:33:55;99523.97;;;27.91;59.05
80927;BME280;70385;44.538;18.532;2023-08-17T10:36:31;99521.94;;;27.93;59.53
80927;BME280;70385;44.538;18.532;2023-08-17T10:41:51;99525.22;;;28.11;57.47
80927;BME280;70385;44.538;18.532;2023-08-17T10:50:24;99513.91;;;28.93;55.84
80927;BME280;70385;44.538;18.532;2023-08-17T10:52:59;99506.53;;;28.87;55.77
80927;BME280;70385;44.538;18.532;2023-08-17T10:55:40;99505.06;;;28.07;57.86
80927;BME280;70385;44.538;18.532;2023-08-17T11:01:36;99498.81;;;29.21;54.88
80927;BME280;70385;44.538;18.532;2023-08-17T11:04:14;99501.28;;;29.97;52.28
80927;BME280;70385;44.538;18.532;2023-08-17T11:06:49;99498.78;;;29.80;52.96
80927;BME280;70385;44.538;18.532;2023-08-17T11:09:32;99490.94;;;30.15;52.13
80927;BME280;70385;44.538;18.532;2023-08-17T11:12:02;99498.34;;;30.28;50.12
80927;BME280;70385;44.538;18.532;2023-08-17T11:14:32;99495.63;;;30.28;46.51
80927;BME280;70385;44.538;18.532;2023-08-17T11:17:02;99486.50;;;29.04;48.04
80927;BME280;70385;44.538;18.532;2023-08-17T11:19:28;99477.50;;;28.59;50.56
80927;BME280;70385;44.538;18.532;2023-08-17T11:21:57;99482.78;;;28.67;51.48
80927;BME280;70385;44.538;18.532;2023-08-17T11:24:23;99482.81;;;29.35;50.06
80927;BME280;70385;44.538;18.532;2023-08-17T11:26:49;99489.44;;;30.12;47.72
80927;BME280;70385;44.538;18.532;2023-08-17T11:29:18;99487.41;;;30.00;47.80
80927;BME280;70385;44.538;18.532;2023-08-17T11:31:49;99488.44;;;29.99;47.83
80927;BME280;70385;44.538;18.532;2023-08-17T11:34:18;99484.88;;;29.62;49.61
80927;BME280;70385;44.538;18.532;2023-08-17T11:36:46;99485.91;;;29.31;51.22
80927;BME280;70385;44.538;18.532;2023-08-17T11:39:13;99483.97;;;30.27;48.24
80927;BME280;70385;44.538;18.532;2023-08-17T11:41:41;99480.84;;;30.45;47.91
80927;BME280;70385;44.538;18.532;2023-08-17T11:44:10;99479.25;;;30.72;47.95
80927;BME280;70385;44.538;18.532;2023-08-17T11:46:37;99477.31;;;30.23;47.76
80927;BME280;70385;44.538;18.532;2023-08-17T11:49:03;99475.31;;;30.74;49.77
80927;BME280;70385;44.538;18.532;2023-08-17T11:51:31;99476.94;;;29.90;49.54
80927;BME280;70385;44.538;18.532;2023-08-17T11:54:03;99479.41;;;29.55;50.54
80927;BME280;70385;44.538;18.532;2023-08-17T11:56:32;99471.00;;;28.68;53.95
80927;BME280;70385;44.538;18.532;2023-08-17T11:58:58;99472.97;;;29.27;50.76
80927;BME280;70385;44.538;18.532;2023-08-17T12:01:24;99473.53;;;29.22;52.66
80927;BME280;70385;44.538;18.532;2023-08-17T12:03:51;99474.63;;;29.43;52.67
80927;BME280;70385;44.538;18.532;2023-08-17T12:06:18;99465.25;;;28.94;52.13
80927;BME280;70385;44.538;18.532;2023-08-17T12:08:46;99467.56;;;28.60;52.12
80927;BME280;70385;44.538;18.532;2023-08-17T12:11:15;99467.31;;;28.24;54.07
80927;BME280;70385;44.538;18.532;2023-08-17T12:13:42;99463.00;;;28.60;51.89
80927;BME280;70385;44.538;18.532;2023-08-17T12:16:14;99460.09;;;27.93;54.47
80927;BME280;70385;44.538;18.532;2023-08-17T12:18:43;99462.97;;;28.15;54.68
80927;BME280;70385;44.538;18.532;2023-08-17T12:21:09;99457.50;;;28.54;52.55
80927;BME280;70385;44.538;18.532;2023-08-17T12:23:35;99463.41;;;27.72;57.15
80927;BME280;70385;44.538;18.532;2023-08-17T12:26:03;99455.13;;;27.82;54.09
80927;BME280;70385;44.538;18.532;2023-08-17T12:28:34;99452.28;;;28.06;53.94
80927;BME280;70385;44.538;18.532;2023-08-17T12:31:03;99457.56;;;27.69;55.37
80927;BME280;70385;44.538;18.532;2023-08-17T12:33:32;99457.75;;;28.44;53.58
80927;BME280;70385;44.538;18.532;2023-08-17T12:35:57;99452.22;;;27.92;55.55
80927;BME280;70385;44.538;18.532;2023-08-17T12:38:25;99449.06;;;28.11;53.26
80927;BME280;70385;44.538;18.532;2023-08-17T12:40:51;99448.75;;;27.83;53.94
80927;BME280;70385;44.538;18.532;2023-08-17T12:43:31;99451.78;;;27.80;56.38
80927;BME280;70385;44.538;18.532;2023-08-17T12:46:05;99448.19;;;28.41;53.28
80927;BME280;70385;44.538;18.532;2023-08-17T12:48:36;99442.38;;;28.30;52.00
80927;BME280;70385;44.538;18.532;2023-08-17T12:51:04;99438.63;;;28.77;51.18
80927;BME280;70385;44.538;18.532;2023-08-17T12:53:47;99439.22;;;29.01;51.75
80927;BME280;70385;44.538;18.532;2023-08-17T12:56:13;99438.72;;;28.83;51.62
80927;BME280;70385;44.538;18.532;2023-08-17T12:58:45;99443.38;;;28.75;50.49
80927;BME280;70385;44.538;18.532;2023-08-17T13:01:18;99441.75;;;29.18;49.87
80927;BME280;70385;44.538;18.532;2023-08-17T13:03:50;99431.25;;;29.52;48.45
80927;BME280;70385;44.538;18.532;2023-08-17T13:06:54;99436.72;;;29.95;49.23
80927;BME280;70385;44.538;18.532;2023-08-17T13:10:22;99430.34;;;30.17;48.03
80927;BME280;70385;44.538;18.532;2023-08-17T13:12:51;99431.50;;;29.28;48.30
80927;BME280;70385;44.538;18.532;2023-08-17T13:18:10;99424.59;;;30.48;47.29
80927;BME280;70385;44.538;18.532;2023-08-17T13:20:47;99428.47;;;30.89;45.13
80927;BME280;70385;44.538;18.532;2023-08-17T13:23:56;99428.28;;;31.25;45.02
80927;BME280;70385;44.538;18.532;2023-08-17T13:29:53;99422.13;;;31.92;42.83
80927;BME280;70385;44.538;18.532;2023-08-17T13:32:21;99428.44;;;32.39;41.00
80927;BME280;70385;44.538;18.532;2023-08-17T13:34:47;99421.47;;;31.83;42.28
80927;BME280;70385;44.538;18.532;2023-08-17T13:37:13;99415.84;;;31.02;43.35
80927;BME280;70385;44.538;18.532;2023-08-17T13:39:45;99418.66;;;30.60;44.72